Latest Weather Observations for South Channel Island

IDV60801

Issued at 7:35 am EST Wednesday 1 October 2014 (issued every 30 minutes, with the page automatically refreshed every 10 minutes)

About weather observations | Map of weather stations | Latest weather observations for VIC | Other Formats
Station Details ID: 086344 Name: SOUTH CHANNEL ISLAND Lat: -38.31 Lon: 144.80 Height: 9.0 m
Data from the previous 72 hours. | See also: Recent months for locations in Victoria
Date/Time
EST
Temp
°C
App
Temp
°C
Dew
Point
Rel
Hum
%
Delta-T
°C
Wind Press
QNH
hPa
Press
MSL
hPa
Rain
since 9 am
mm
Dir
 
Spd
km/h
Gust
km/h
Spd
kts
Gust
kts
01/07:30am - - - - - WNW 32 41 17 22 - - -
01/07:14am - - - - - SW 35 37 19 20 - - -
01/07:00am - - - - - W 37 44 20 24 - - -
01/06:30am - - - - - W 39 44 21 24 - - -
01/06:00am - - - - - W 37 46 20 25 - - -
01/05:57am - - - - - WNW 37 46 20 25 - - -
01/05:34am - - - - - SW 35 54 19 29 - - -
01/05:30am - - - - - SW 39 54 21 29 - - -
01/05:27am - - - - - SW 41 54 22 29 - - -
01/05:00am - - - - - WNW 39 48 21 26 - - -
01/04:53am - - - - - WNW 39 43 21 23 - - -
01/04:30am - - - - - WSW 50 67 27 36 - - -
01/04:23am - - - - - W 41 67 22 36 - - -
01/04:00am - - - - - WNW 35 48 19 26 - - -
01/03:57am - - - - - WNW 35 41 19 22 - - -
01/03:30am - - - - - W 41 52 22 28 - - -
01/03:00am - - - - - WSW 43 48 23 26 - - -
01/02:59am - - - - - WSW 43 48 23 26 - - -
01/02:30am - - - - - WNW 44 54 24 29 - - -
01/02:00am - - - - - W 44 52 24 28 - - -
01/01:30am - - - - - W 44 54 24 29 - - -
01/01:00am - - - - - W 43 54 23 29 - - -
01/12:30am - - - - - W 50 61 27 33 - - -
01/12:00am - - - - - W 43 52 23 28 - - -
 
Date/Time
EST
Temp
°C
App
Temp
°C
Dew
Point
Rel
Hum
%
Delta-T
°C
Wind Press
QNH
hPa
Press
MSL
hPa
Rain
since 9 am
mm
Dir
 
Spd
km/h
Gust
km/h
Spd
kts
Gust
kts
30/11:30pm - - - - - WNW 54 61 29 33 - - -
30/11:00pm - - - - - W 56 65 30 35 - - -
30/10:30pm - - - - - WNW 48 57 26 31 - - -
30/10:00pm - - - - - W 52 57 28 31 - - -
30/09:50pm - - - - - WSW 59 70 32 38 - - -
30/09:46pm - - - - - W 50 76 27 41 - - -
30/09:30pm - - - - - W 50 57 27 31 - - -
30/09:00pm - - - - - W 44 56 24 30 - - -
30/08:30pm - - - - - W 43 50 23 27 - - -
30/08:00pm - - - - - W 44 54 24 29 - - -
30/07:32pm - - - - - W 54 72 29 39 - - -
30/07:30pm - - - - - W 52 67 28 36 - - -
30/07:00pm - - - - - W 48 57 26 31 - - -
30/06:30pm - - - - - W 54 61 29 33 - - -
30/06:00pm - - - - - W 52 61 28 33 - - -
30/05:30pm - - - - - W 46 61 25 33 - - -
30/05:00pm - - - - - W 50 57 27 31 - - -
30/04:30pm - - - - - W 57 67 31 36 - - -
30/04:03pm - - - - - W 70 89 38 48 - - -
30/04:00pm - - - - - W 74 89 40 48 - - -
30/03:40pm - - - - - WSW 61 83 33 45 - - -
30/03:30pm - - - - - WSW 67 78 36 42 - - -
30/03:00pm - - - - - W 72 85 39 46 - - -
30/02:30pm - - - - - W 78 98 42 53 - - -
30/02:24pm - - - - - W 80 98 43 53 - - -
30/02:20pm - - - - - W 80 93 43 50 - - -
30/02:00pm - - - - - NW 57 76 31 41 - - -
30/01:58pm - - - - - NW 54 76 29 41 - - -
30/01:30pm - - - - - NNW 57 70 31 38 - - -
30/01:00pm - - - - - NNW 59 72 32 39 - - -
30/12:50pm - - - - - NNW 57 76 31 41 - - -
30/12:30pm - - - - - NNW 57 72 31 39 - - -
30/12:24pm - - - - - NNW 54 72 29 39 - - -
30/12:00pm - - - - - NNW 46 61 25 33 - - -
30/11:30am - - - - - NNW 48 63 26 34 - - -
30/11:14am - - - - - NNW 46 67 25 36 - - -
30/11:00am - - - - - NW 39 48 21 26 - - -
30/10:46am - - - - - NW 39 43 21 23 - - -
30/10:30am - - - - - N 37 44 20 24 - - -
30/10:00am - - - - - N 37 43 20 23 - - -
30/09:30am - - - - - N 33 39 18 21 - - -
30/09:00am - - - - - N 41 48 22 26 - - -
30/08:30am - - - - - N 39 44 21 24 - - -
30/08:00am - - - - - N 41 48 22 26 - - -
30/07:30am - - - - - N 33 39 18 21 - - -
30/07:00am - - - - - NNW 28 32 15 17 - - -
30/06:30am - - - - - NNW 20 26 11 14 - - -
30/06:00am - - - - - NNW 24 30 13 16 - - -
30/05:30am - - - - - NNW 24 28 13 15 - - -
30/05:00am - - - - - NNW 19 22 10 12 - - -
30/04:30am - - - - - NNW 20 26 11 14 - - -
30/04:00am - - - - - NW 19 22 10 12 - - -
30/03:30am - - - - - NW 22 26 12 14 - - -
30/03:00am - - - - - NNW 11 13 6 7 - - -
30/02:30am - - - - - N 9 9 5 5 - - -
30/02:00am - - - - - CALM 0 4 0 2 - - -
30/01:30am - - - - - S 11 13 6 7 - - -
30/01:00am - - - - - SSE 13 15 7 8 - - -
30/12:30am - - - - - S 19 20 10 11 - - -
30/12:00am - - - - - S 22 26 12 14 - - -
 
Date/Time
EST
Temp
°C
App
Temp
°C
Dew
Point
Rel
Hum
%
Delta-T
°C
Wind Press
QNH
hPa
Press
MSL
hPa
Rain
since 9 am
mm
Dir
 
Spd
km/h
Gust
km/h
Spd
kts
Gust
kts
29/11:30pm - - - - - S 22 26 12 14 - - -
29/11:00pm - - - - - SSW 19 22 10 12 - - -
29/10:30pm - - - - - WNW 26 37 14 20 - - -
29/10:18pm - - - - - NW 24 30 13 16 - - -
29/10:00pm - - - - - N 37 41 20 22 - - -
29/09:30pm - - - - - N 35 41 19 22 - - -
29/09:00pm - - - - - N 28 30 15 16 - - -
29/08:30pm - - - - - N 28 30 15 16 - - -
29/08:00pm - - - - - N 22 26 12 14 - - -
29/07:30pm - - - - - N 22 26 12 14 - - -
29/07:00pm - - - - - NNW 22 24 12 13 - - -
29/06:30pm - - - - - NW 28 32 15 17 - - -
29/06:00pm - - - - - NNW 28 30 15 16 - - -
29/05:30pm - - - - - NW 24 32 13 17 - - -
29/05:00pm - - - - - NNE 11 13 6 7 - - -
29/04:30pm - - - - - NE 13 17 7 9 - - -
29/04:00pm - - - - - ENE 11 13 6 7 - - -
29/03:30pm - - - - - ENE 13 13 7 7 - - -
29/03:00pm - - - - - NNE 15 22 8 12 - - -
29/02:30pm - - - - - NNE 13 17 7 9 - - -
29/02:00pm - - - - - N 15 17 8 9 - - -
29/01:30pm - - - - - N 19 24 10 13 - - -
29/01:00pm - - - - - NW 22 28 12 15 - - -
29/12:30pm - - - - - NW 28 33 15 18 - - -
29/12:00pm - - - - - NW 30 33 16 18 - - -
29/11:30am - - - - - NNW 32 39 17 21 - - -
29/11:00am - - - - - NW 24 32 13 17 - - -
29/10:30am - - - - - W 20 24 11 13 - - -
29/10:00am - - - - - WNW 24 26 13 14 - - -
29/09:30am - - - - - WNW 20 26 11 14 - - -
29/09:00am - - - - - WNW 20 26 11 14 - - -
29/08:30am - - - - - NNW 24 28 13 15 - - -
29/08:00am - - - - - NW 32 35 17 19 - - -
29/07:30am - - - - - NW 30 33 16 18 - - -
29/07:00am - - - - - NW 26 32 14 17 - - -
29/06:30am - - - - - NW 32 37 17 20 - - -
29/06:00am - - - - - WNW 32 35 17 19 - - -
29/05:30am - - - - - NW 30 33 16 18 - - -
29/05:00am - - - - - WNW 32 37 17 20 - - -
29/04:30am - - - - - WNW 33 39 18 21 - - -
29/04:00am - - - - - W 33 41 18 22 - - -
29/03:30am - - - - - WNW 39 48 21 26 - - -
29/03:00am - - - - - WNW 46 56 25 30 - - -
29/02:30am - - - - - WNW 46 54 25 29 - - -
29/02:00am - - - - - WNW 50 65 27 35 - - -
29/01:30am - - - - - WNW 48 57 26 31 - - -
29/01:00am - - - - - WNW 48 56 26 30 - - -
29/12:30am - - - - - W 46 56 25 30 - - -
29/12:00am - - - - - W 43 50 23 27 - - -
 
Date/Time
EST
Temp
°C
App
Temp
°C
Dew
Point
Rel
Hum
%
Delta-T
°C
Wind Press
QNH
hPa
Press
MSL
hPa
Rain
since 9 am
mm
Dir
 
Spd
km/h
Gust
km/h
Spd
kts
Gust
kts
28/11:30pm - - - - - W 30 35 16 19 - - -
28/11:00pm - - - - - W 35 41 19 22 - - -
28/10:53pm - - - - - W 35 37 19 20 - - -
28/10:30pm - - - - - W 15 17 8 9 - - -
28/10:00pm - - - - - SW 19 22 10 12 - - -
28/09:30pm - - - - - SW 26 33 14 18 - - -
28/09:00pm - - - - - S 28 35 15 19 - - -
28/08:30pm - - - - - S 32 39 17 21 - - -
28/08:00pm - - - - - SSW 43 54 23 29 - - -
28/07:51pm - - - - - SSW 41 54 22 29 - - -
28/07:48pm - - - - - W 39 61 21 33 - - -
28/07:47pm - - - - - NW 33 61 18 33 - - -
28/07:30pm - - - - - NW 33 48 18 26 - - -
28/07:14pm - - - - - NW 28 33 15 18 - - -
28/07:00pm - - - - - N 37 41 20 22 - - -
28/06:30pm - - - - - N 46 52 25 28 - - -
28/06:00pm - - - - - N 46 52 25 28 - - -
28/05:30pm - - - - - N 52 57 28 31 - - -
28/05:00pm - - - - - N 52 61 28 33 - - -
28/04:30pm - - - - - N 46 54 25 29 - - -
28/04:00pm - - - - - N 46 56 25 30 - - -
28/03:30pm - - - - - N 48 57 26 31 - - -
28/03:00pm - - - - - N 44 54 24 29 - - -
28/02:30pm - - - - - N 46 54 25 29 - - -
28/02:00pm - - - - - N 44 52 24 28 - - -
28/01:30pm - - - - - N 41 50 22 27 - - -
28/01:00pm - - - - - N 43 50 23 27 - - -
28/12:30pm - - - - - N 43 52 23 28 - - -
28/12:00pm - - - - - N 41 50 22 27 - - -
28/11:30am - - - - - N 56 63 30 34 - - -
28/11:00am - - - - - N 61 72 33 39 - - -
28/10:30am - - - - - N 63 76 34 41 - - -
28/10:00am - - - - - N 63 70 34 38 - - -
28/09:30am - - - - - N 61 70 33 38 - - -
28/09:00am - - - - - N 61 70 33 38 - - -
28/08:30am - - - - - N 57 67 31 36 - - -
28/08:00am - - - - - N 54 61 29 33 - - -

Other Formats:

Comma delimited format used in spreadsheet applications
http://www.bom.gov.au/fwo/IDV60801/IDV60801.94853.axf

JavaScript Object Notation format (JSON) in row-major order
http://www.bom.gov.au/fwo/IDV60801/IDV60801.94853.json